METAR Data
IDs: Format: Raw Decoded Include TAF

Data at: 0605 UTC 24 Jan 2019

METAR for:KVTA (Newark/Heath Arpt, OH, US)
Text:KVTA 240554Z AUTO 32008KT 7SM -RA OVC008 03/01 A2965 RMK AO2 SLP043 P0007 60031 T00280011 10106 20028 58001
Temperature: 2.8°C ( 37°F)
Dewpoint: 1.1°C ( 34°F) [RH = 89%]
Pressure (altimeter):29.65 inches Hg (1004.1 mb) [Sea level pressure: 1004.3 mb]
Winds:from the NW (320 degrees) at 9 MPH (8 knots; 4.1 m/s)
Visibility: 7 sm ( 11 km)
Ceiling:800 feet AGL
Clouds: overcast cloud deck at 800 feet AGL
Weather:-RA (light rain)
QC Flag:automated observation with no human augmentation